sensor_id;sensor_type;location;lat;lon;timestamp;P1;durP1;ratioP1;P2;durP2;ratioP2
830;SDS011;397;50.564;7.272;2023-06-26T00:01:11;8.80;;;8.00;;
830;SDS011;397;50.564;7.272;2023-06-26T00:03:39;8.83;;;7.93;;
830;SDS011;397;50.564;7.272;2023-06-26T00:06:07;7.97;;;7.23;;
830;SDS011;397;50.564;7.272;2023-06-26T00:08:34;9.03;;;8.20;;
830;SDS011;397;50.564;7.272;2023-06-26T00:11:02;8.83;;;8.03;;
830;SDS011;397;50.564;7.272;2023-06-26T00:13:29;8.70;;;7.43;;
830;SDS011;397;50.564;7.272;2023-06-26T00:15:57;9.13;;;7.83;;
830;SDS011;397;50.564;7.272;2023-06-26T00:18:26;8.40;;;7.60;;
830;SDS011;397;50.564;7.272;2023-06-26T00:20:53;8.57;;;7.77;;
830;SDS011;397;50.564;7.272;2023-06-26T00:23:21;8.90;;;8.10;;
830;SDS011;397;50.564;7.272;2023-06-26T00:25:48;8.37;;;7.57;;
830;SDS011;397;50.564;7.272;2023-06-26T00:28:16;8.93;;;8.10;;
830;SDS011;397;50.564;7.272;2023-06-26T00:30:43;9.27;;;8.47;;
830;SDS011;397;50.564;7.272;2023-06-26T00:33:11;9.23;;;8.33;;
830;SDS011;397;50.564;7.272;2023-06-26T00:35:39;8.20;;;7.40;;
830;SDS011;397;50.564;7.272;2023-06-26T00:38:06;10.07;;;8.67;;
830;SDS011;397;50.564;7.272;2023-06-26T00:40:33;8.50;;;7.70;;
830;SDS011;397;50.564;7.272;2023-06-26T00:43:01;8.47;;;7.67;;
830;SDS011;397;50.564;7.272;2023-06-26T00:45:29;9.30;;;7.03;;
830;SDS011;397;50.564;7.272;2023-06-26T00:47:56;8.00;;;7.20;;
830;SDS011;397;50.564;7.272;2023-06-26T00:50:24;8.97;;;8.17;;
830;SDS011;397;50.564;7.272;2023-06-26T00:52:52;9.07;;;8.20;;
830;SDS011;397;50.564;7.272;2023-06-26T00:55:21;7.80;;;7.00;;
830;SDS011;397;50.564;7.272;2023-06-26T00:57:49;7.60;;;6.90;;
830;SDS011;397;50.564;7.272;2023-06-26T01:00:16;8.60;;;7.70;;
830;SDS011;397;50.564;7.272;2023-06-26T01:02:44;8.33;;;7.53;;
830;SDS011;397;50.564;7.272;2023-06-26T01:05:12;8.17;;;7.37;;
830;SDS011;397;50.564;7.272;2023-06-26T01:07:42;8.63;;;7.83;;
830;SDS011;397;50.564;7.272;2023-06-26T01:10:09;8.90;;;7.90;;
830;SDS011;397;50.564;7.272;2023-06-26T01:12:37;9.30;;;8.27;;
830;SDS011;397;50.564;7.272;2023-06-26T01:15:05;9.00;;;8.20;;
830;SDS011;397;50.564;7.272;2023-06-26T01:17:33;9.20;;;8.30;;
830;SDS011;397;50.564;7.272;2023-06-26T01:20:04;7.90;;;7.10;;
830;SDS011;397;50.564;7.272;2023-06-26T01:22:43;9.00;;;8.10;;
830;SDS011;397;50.564;7.272;2023-06-26T01:25:29;7.87;;;7.10;;
830;SDS011;397;50.564;7.272;2023-06-26T01:28:17;8.40;;;7.60;;
830;SDS011;397;50.564;7.272;2023-06-26T01:30:47;9.20;;;8.30;;
830;SDS011;397;50.564;7.272;2023-06-26T01:33:15;8.47;;;7.67;;
830;SDS011;397;50.564;7.272;2023-06-26T01:35:43;8.87;;;8.07;;
830;SDS011;397;50.564;7.272;2023-06-26T01:38:15;9.03;;;8.13;;
830;SDS011;397;50.564;7.272;2023-06-26T01:40:44;8.43;;;7.63;;
830;SDS011;397;50.564;7.272;2023-06-26T01:46:06;8.67;;;7.67;;
830;SDS011;397;50.564;7.272;2023-06-26T01:48:40;8.77;;;7.93;;
830;SDS011;397;50.564;7.272;2023-06-26T01:51:09;8.93;;;7.20;;
830;SDS011;397;50.564;7.272;2023-06-26T01:53:38;9.80;;;7.90;;
830;SDS011;397;50.564;7.272;2023-06-26T01:56:08;7.73;;;7.03;;
830;SDS011;397;50.564;7.272;2023-06-26T01:58:39;10.70;;;9.40;;
830;SDS011;397;50.564;7.272;2023-06-26T02:01:09;7.90;;;7.10;;
830;SDS011;397;50.564;7.272;2023-06-26T02:03:36;8.40;;;7.60;;
830;SDS011;397;50.564;7.272;2023-06-26T02:06:04;8.07;;;7.27;;
830;SDS011;397;50.564;7.272;2023-06-26T02:08:31;9.40;;;7.80;;
830;SDS011;397;50.564;7.272;2023-06-26T02:10:59;8.70;;;7.90;;
830;SDS011;397;50.564;7.272;2023-06-26T02:13:26;8.10;;;7.30;;
830;SDS011;397;50.564;7.272;2023-06-26T02:15:54;8.73;;;7.93;;
830;SDS011;397;50.564;7.272;2023-06-26T02:18:21;8.97;;;8.07;;
830;SDS011;397;50.564;7.272;2023-06-26T02:20:50;7.03;;;6.30;;
830;SDS011;397;50.564;7.272;2023-06-26T02:23:17;8.03;;;7.23;;
830;SDS011;397;50.564;7.272;2023-06-26T02:25:45;8.60;;;7.00;;
830;SDS011;397;50.564;7.272;2023-06-26T02:28:12;8.57;;;7.80;;
830;SDS011;397;50.564;7.272;2023-06-26T02:30:40;9.20;;;7.60;;
830;SDS011;397;50.564;7.272;2023-06-26T02:33:07;9.03;;;7.63;;
830;SDS011;397;50.564;7.272;2023-06-26T02:35:35;7.37;;;6.67;;
830;SDS011;397;50.564;7.272;2023-06-26T02:38:02;8.40;;;7.60;;
830;SDS011;397;50.564;7.272;2023-06-26T02:40:30;8.97;;;8.10;;
830;SDS011;397;50.564;7.272;2023-06-26T02:42:58;9.60;;;8.30;;
830;SDS011;397;50.564;7.272;2023-06-26T02:45:25;7.13;;;6.43;;
830;SDS011;397;50.564;7.272;2023-06-26T02:47:53;7.97;;;7.17;;
830;SDS011;397;50.564;7.272;2023-06-26T02:50:20;8.20;;;7.30;;
830;SDS011;397;50.564;7.272;2023-06-26T02:52:48;8.40;;;7.07;;
830;SDS011;397;50.564;7.272;2023-06-26T02:55:17;8.17;;;7.37;;
830;SDS011;397;50.564;7.272;2023-06-26T02:57:46;7.73;;;7.03;;
830;SDS011;397;50.564;7.272;2023-06-26T03:00:14;7.30;;;6.60;;
830;SDS011;397;50.564;7.272;2023-06-26T03:02:42;9.50;;;8.00;;
830;SDS011;397;50.564;7.272;2023-06-26T03:05:09;8.67;;;7.60;;
830;SDS011;397;50.564;7.272;2023-06-26T03:07:38;9.47;;;7.70;;
830;SDS011;397;50.564;7.272;2023-06-26T03:10:06;8.93;;;7.87;;
830;SDS011;397;50.564;7.272;2023-06-26T03:12:34;7.90;;;7.17;;
830;SDS011;397;50.564;7.272;2023-06-26T03:15:02;7.60;;;6.90;;
830;SDS011;397;50.564;7.272;2023-06-26T03:17:29;7.10;;;6.40;;
830;SDS011;397;50.564;7.272;2023-06-26T03:19:57;8.10;;;7.40;;
830;SDS011;397;50.564;7.272;2023-06-26T03:22:24;8.50;;;7.70;;
830;SDS011;397;50.564;7.272;2023-06-26T03:24:52;7.43;;;6.63;;
830;SDS011;397;50.564;7.272;2023-06-26T03:27:21;8.23;;;7.13;;
830;SDS011;397;50.564;7.272;2023-06-26T03:29:48;8.93;;;7.70;;
830;SDS011;397;50.564;7.272;2023-06-26T03:32:16;8.57;;;6.67;;
830;SDS011;397;50.564;7.272;2023-06-26T03:34:43;8.70;;;7.90;;
830;SDS011;397;50.564;7.272;2023-06-26T03:37:11;8.33;;;7.53;;
830;SDS011;397;50.564;7.272;2023-06-26T03:39:39;8.80;;;7.90;;
830;SDS011;397;50.564;7.272;2023-06-26T03:42:06;9.70;;;8.70;;
830;SDS011;397;50.564;7.272;2023-06-26T03:44:34;9.03;;;7.73;;
830;SDS011;397;50.564;7.272;2023-06-26T03:47:01;8.77;;;7.87;;
830;SDS011;397;50.564;7.272;2023-06-26T03:49:29;10.10;;;9.03;;
830;SDS011;397;50.564;7.272;2023-06-26T03:51:56;9.33;;;8.50;;
830;SDS011;397;50.564;7.272;2023-06-26T03:54:24;10.00;;;9.03;;
830;SDS011;397;50.564;7.272;2023-06-26T03:56:51;10.67;;;9.60;;
830;SDS011;397;50.564;7.272;2023-06-26T03:59:19;9.40;;;8.50;;
830;SDS011;397;50.564;7.272;2023-06-26T04:01:46;10.87;;;9.87;;
830;SDS011;397;50.564;7.272;2023-06-26T04:04:14;8.77;;;7.87;;
830;SDS011;397;50.564;7.272;2023-06-26T04:06:41;9.90;;;8.90;;
830;SDS011;397;50.564;7.272;2023-06-26T04:09:09;10.17;;;8.60;;
830;SDS011;397;50.564;7.272;2023-06-26T04:11:36;13.23;;;9.37;;
830;SDS011;397;50.564;7.272;2023-06-26T04:14:04;10.00;;;9.13;;
830;SDS011;397;50.564;7.272;2023-06-26T04:16:31;10.30;;;9.20;;
830;SDS011;397;50.564;7.272;2023-06-26T04:18:59;9.53;;;8.53;;
830;SDS011;397;50.564;7.272;2023-06-26T04:21:28;10.70;;;8.43;;
830;SDS011;397;50.564;7.272;2023-06-26T04:23:55;9.60;;;8.70;;
830;SDS011;397;50.564;7.272;2023-06-26T04:26:23;9.73;;;8.73;;
830;SDS011;397;50.564;7.272;2023-06-26T04:28:50;9.70;;;8.80;;
830;SDS011;397;50.564;7.272;2023-06-26T04:31:18;9.77;;;8.53;;
830;SDS011;397;50.564;7.272;2023-06-26T04:33:46;9.50;;;8.60;;
830;SDS011;397;50.564;7.272;2023-06-26T04:36:15;10.57;;;9.27;;
830;SDS011;397;50.564;7.272;2023-06-26T04:38:43;10.73;;;9.37;;
830;SDS011;397;50.564;7.272;2023-06-26T04:41:11;9.83;;;8.80;;
830;SDS011;397;50.564;7.272;2023-06-26T04:43:38;10.67;;;9.60;;
830;SDS011;397;50.564;7.272;2023-06-26T04:46:06;10.50;;;9.50;;
830;SDS011;397;50.564;7.272;2023-06-26T04:48:34;10.27;;;9.27;;
830;SDS011;397;50.564;7.272;2023-06-26T04:51:01;9.30;;;8.30;;
830;SDS011;397;50.564;7.272;2023-06-26T04:53:29;10.77;;;9.77;;
830;SDS011;397;50.564;7.272;2023-06-26T04:55:56;9.53;;;8.60;;
830;SDS011;397;50.564;7.272;2023-06-26T04:58:24;10.33;;;9.33;;
830;SDS011;397;50.564;7.272;2023-06-26T05:00:51;10.63;;;9.53;;
830;SDS011;397;50.564;7.272;2023-06-26T05:03:18;10.30;;;9.00;;
830;SDS011;397;50.564;7.272;2023-06-26T05:05:47;9.63;;;8.63;;
830;SDS011;397;50.564;7.272;2023-06-26T05:08:21;9.10;;;8.30;;
830;SDS011;397;50.564;7.272;2023-06-26T05:10:52;8.90;;;8.03;;
830;SDS011;397;50.564;7.272;2023-06-26T05:13:21;9.67;;;8.67;;
830;SDS011;397;50.564;7.272;2023-06-26T05:15:49;9.97;;;8.97;;
830;SDS011;397;50.564;7.272;2023-06-26T05:18:16;9.73;;;8.87;;
830;SDS011;397;50.564;7.272;2023-06-26T05:20:44;10.90;;;9.80;;
830;SDS011;397;50.564;7.272;2023-06-26T05:23:12;10.30;;;9.40;;
830;SDS011;397;50.564;7.272;2023-06-26T05:25:40;9.93;;;9.03;;
830;SDS011;397;50.564;7.272;2023-06-26T05:28:08;10.50;;;9.40;;
830;SDS011;397;50.564;7.272;2023-06-26T05:30:37;10.07;;;9.17;;
830;SDS011;397;50.564;7.272;2023-06-26T05:33:05;9.47;;;8.57;;
830;SDS011;397;50.564;7.272;2023-06-26T05:35:34;10.73;;;9.20;;
830;SDS011;397;50.564;7.272;2023-06-26T05:38:03;9.80;;;8.90;;
830;SDS011;397;50.564;7.272;2023-06-26T05:40:31;10.77;;;9.80;;
830;SDS011;397;50.564;7.272;2023-06-26T05:43:00;9.07;;;8.20;;
830;SDS011;397;50.564;7.272;2023-06-26T05:45:28;10.27;;;9.13;;
830;SDS011;397;50.564;7.272;2023-06-26T05:47:55;8.27;;;7.47;;
830;SDS011;397;50.564;7.272;2023-06-26T05:50:23;10.20;;;9.10;;
830;SDS011;397;50.564;7.272;2023-06-26T05:52:51;10.80;;;9.80;;
830;SDS011;397;50.564;7.272;2023-06-26T05:55:20;10.53;;;9.20;;
830;SDS011;397;50.564;7.272;2023-06-26T05:57:48;9.00;;;8.20;;
830;SDS011;397;50.564;7.272;2023-06-26T06:00:17;10.40;;;9.43;;
830;SDS011;397;50.564;7.272;2023-06-26T06:02:45;10.00;;;9.10;;
830;SDS011;397;50.564;7.272;2023-06-26T06:05:13;10.10;;;8.60;;
830;SDS011;397;50.564;7.272;2023-06-26T06:07:40;10.87;;;9.87;;
830;SDS011;397;50.564;7.272;2023-06-26T06:10:08;13.63;;;8.97;;
830;SDS011;397;50.564;7.272;2023-06-26T06:12:36;11.17;;;9.50;;
830;SDS011;397;50.564;7.272;2023-06-26T06:15:05;13.07;;;9.53;;
830;SDS011;397;50.564;7.272;2023-06-26T06:17:33;9.13;;;8.23;;
830;SDS011;397;50.564;7.272;2023-06-26T06:20:00;10.20;;;9.20;;
830;SDS011;397;50.564;7.272;2023-06-26T06:22:28;10.67;;;9.53;;
830;SDS011;397;50.564;7.272;2023-06-26T06:24:56;9.20;;;8.40;;
830;SDS011;397;50.564;7.272;2023-06-26T06:27:23;14.50;;;9.70;;
830;SDS011;397;50.564;7.272;2023-06-26T06:29:51;20.03;;;10.70;;
830;SDS011;397;50.564;7.272;2023-06-26T06:32:18;11.17;;;10.10;;
830;SDS011;397;50.564;7.272;2023-06-26T06:34:46;9.73;;;8.70;;
830;SDS011;397;50.564;7.272;2023-06-26T06:37:13;10.90;;;9.80;;
830;SDS011;397;50.564;7.272;2023-06-26T06:39:41;9.77;;;8.87;;
830;SDS011;397;50.564;7.272;2023-06-26T06:42:08;9.83;;;9.03;;
830;SDS011;397;50.564;7.272;2023-06-26T06:44:36;10.67;;;9.57;;
830;SDS011;397;50.564;7.272;2023-06-26T06:47:03;15.23;;;10.33;;
830;SDS011;397;50.564;7.272;2023-06-26T06:49:31;35.57;;;12.63;;
830;SDS011;397;50.564;7.272;2023-06-26T06:51:58;12.53;;;8.80;;
830;SDS011;397;50.564;7.272;2023-06-26T06:54:26;9.60;;;7.70;;
830;SDS011;397;50.564;7.272;2023-06-26T06:56:54;8.27;;;7.40;;
830;SDS011;397;50.564;7.272;2023-06-26T06:59:21;7.70;;;6.90;;
830;SDS011;397;50.564;7.272;2023-06-26T07:01:49;7.67;;;6.97;;
830;SDS011;397;50.564;7.272;2023-06-26T07:04:16;8.17;;;7.37;;
830;SDS011;397;50.564;7.272;2023-06-26T07:06:44;9.00;;;6.90;;
830;SDS011;397;50.564;7.272;2023-06-26T07:09:11;9.17;;;5.90;;
830;SDS011;397;50.564;7.272;2023-06-26T07:11:40;9.67;;;7.30;;
830;SDS011;397;50.564;7.272;2023-06-26T07:14:08;11.90;;;6.80;;
830;SDS011;397;50.564;7.272;2023-06-26T07:16:35;6.33;;;5.60;;
830;SDS011;397;50.564;7.272;2023-06-26T07:19:03;8.00;;;5.67;;
830;SDS011;397;50.564;7.272;2023-06-26T07:21:30;8.60;;;4.50;;
830;SDS011;397;50.564;7.272;2023-06-26T07:23:58;7.60;;;5.60;;
830;SDS011;397;50.564;7.272;2023-06-26T07:26:25;6.10;;;5.50;;
830;SDS011;397;50.564;7.272;2023-06-26T07:28:53;7.83;;;4.90;;
830;SDS011;397;50.564;7.272;2023-06-26T07:31:22;11.57;;;6.40;;
830;SDS011;397;50.564;7.272;2023-06-26T07:33:49;9.70;;;6.47;;
830;SDS011;397;50.564;7.272;2023-06-26T07:36:17;7.03;;;5.50;;
830;SDS011;397;50.564;7.272;2023-06-26T07:38:44;7.87;;;6.07;;
830;SDS011;397;50.564;7.272;2023-06-26T07:41:12;11.43;;;5.60;;
830;SDS011;397;50.564;7.272;2023-06-26T07:43:39;10.03;;;5.90;;
830;SDS011;397;50.564;7.272;2023-06-26T07:46:07;6.13;;;4.90;;
830;SDS011;397;50.564;7.272;2023-06-26T07:48:34;8.00;;;5.87;;
830;SDS011;397;50.564;7.272;2023-06-26T07:51:02;7.97;;;5.60;;
830;SDS011;397;50.564;7.272;2023-06-26T07:53:29;7.97;;;5.43;;
830;SDS011;397;50.564;7.272;2023-06-26T07:55:57;6.60;;;5.53;;
830;SDS011;397;50.564;7.272;2023-06-26T07:58:24;10.60;;;5.53;;
830;SDS011;397;50.564;7.272;2023-06-26T08:00:52;7.53;;;5.40;;
830;SDS011;397;50.564;7.272;2023-06-26T08:03:19;9.13;;;6.00;;
830;SDS011;397;50.564;7.272;2023-06-26T08:05:47;10.57;;;6.13;;
830;SDS011;397;50.564;7.272;2023-06-26T08:08:14;7.60;;;6.40;;
830;SDS011;397;50.564;7.272;2023-06-26T08:10:42;10.50;;;5.80;;
830;SDS011;397;50.564;7.272;2023-06-26T08:13:09;7.90;;;5.70;;
830;SDS011;397;50.564;7.272;2023-06-26T08:15:37;8.30;;;6.00;;
830;SDS011;397;50.564;7.272;2023-06-26T08:18:05;7.17;;;5.83;;
830;SDS011;397;50.564;7.272;2023-06-26T08:20:32;12.63;;;5.93;;
830;SDS011;397;50.564;7.272;2023-06-26T08:23:01;8.33;;;6.37;;
830;SDS011;397;50.564;7.272;2023-06-26T08:25:30;10.53;;;7.00;;
830;SDS011;397;50.564;7.272;2023-06-26T08:27:58;10.50;;;7.00;;
830;SDS011;397;50.564;7.272;2023-06-26T08:30:25;10.00;;;6.23;;
830;SDS011;397;50.564;7.272;2023-06-26T08:32:54;7.10;;;6.40;;
830;SDS011;397;50.564;7.272;2023-06-26T08:35:22;9.33;;;5.70;;
830;SDS011;397;50.564;7.272;2023-06-26T08:37:49;7.23;;;6.13;;
830;SDS011;397;50.564;7.272;2023-06-26T08:40:17;7.53;;;6.40;;
830;SDS011;397;50.564;7.272;2023-06-26T08:42:45;8.87;;;7.17;;
830;SDS011;397;50.564;7.272;2023-06-26T08:45:13;8.67;;;6.83;;
830;SDS011;397;50.564;7.272;2023-06-26T08:47:40;9.63;;;6.70;;
830;SDS011;397;50.564;7.272;2023-06-26T08:50:12;8.37;;;6.17;;
830;SDS011;397;50.564;7.272;2023-06-26T08:55:22;9.73;;;6.40;;
830;SDS011;397;50.564;7.272;2023-06-26T08:57:52;10.00;;;6.40;;
830;SDS011;397;50.564;7.272;2023-06-26T09:00:20;11.27;;;6.77;;
830;SDS011;397;50.564;7.272;2023-06-26T09:02:47;8.80;;;6.27;;
830;SDS011;397;50.564;7.272;2023-06-26T09:05:15;8.57;;;6.23;;
830;SDS011;397;50.564;7.272;2023-06-26T09:07:42;8.03;;;6.83;;
830;SDS011;397;50.564;7.272;2023-06-26T09:10:10;8.90;;;6.07;;
830;SDS011;397;50.564;7.272;2023-06-26T09:12:38;6.33;;;5.50;;
830;SDS011;397;50.564;7.272;2023-06-26T09:15:06;7.27;;;5.13;;
830;SDS011;397;50.564;7.272;2023-06-26T09:17:36;11.40;;;6.53;;
830;SDS011;397;50.564;7.272;2023-06-26T09:20:09;14.00;;;6.90;;
830;SDS011;397;50.564;7.272;2023-06-26T09:22:38;8.83;;;5.40;;
830;SDS011;397;50.564;7.272;2023-06-26T09:25:07;6.80;;;5.40;;
830;SDS011;397;50.564;7.272;2023-06-26T09:27:36;6.87;;;5.03;;
830;SDS011;397;50.564;7.272;2023-06-26T09:30:06;8.03;;;4.50;;
830;SDS011;397;50.564;7.272;2023-06-26T09:32:36;6.87;;;5.20;;
830;SDS011;397;50.564;7.272;2023-06-26T09:35:03;9.67;;;5.03;;
830;SDS011;397;50.564;7.272;2023-06-26T09:37:32;7.30;;;4.93;;
830;SDS011;397;50.564;7.272;2023-06-26T09:40:00;8.00;;;5.40;;
830;SDS011;397;50.564;7.272;2023-06-26T09:42:28;8.60;;;4.80;;
830;SDS011;397;50.564;7.272;2023-06-26T09:44:56;8.40;;;5.00;;
830;SDS011;397;50.564;7.272;2023-06-26T09:47:24;7.53;;;5.50;;
830;SDS011;397;50.564;7.272;2023-06-26T09:49:52;6.57;;;4.97;;
830;SDS011;397;50.564;7.272;2023-06-26T09:52:20;7.50;;;5.07;;
830;SDS011;397;50.564;7.272;2023-06-26T09:54:48;6.90;;;5.10;;
830;SDS011;397;50.564;7.272;2023-06-26T09:57:16;8.40;;;4.77;;
830;SDS011;397;50.564;7.272;2023-06-26T09:59:45;7.53;;;4.60;;
830;SDS011;397;50.564;7.272;2023-06-26T10:02:12;6.20;;;3.67;;
830;SDS011;397;50.564;7.272;2023-06-26T10:04:40;9.03;;;4.13;;
830;SDS011;397;50.564;7.272;2023-06-26T10:07:08;6.80;;;3.53;;
830;SDS011;397;50.564;7.272;2023-06-26T10:09:45;7.77;;;3.97;;
830;SDS011;397;50.564;7.272;2023-06-26T10:12:11;9.40;;;3.87;;
830;SDS011;397;50.564;7.272;2023-06-26T10:14:39;7.10;;;3.50;;
830;SDS011;397;50.564;7.272;2023-06-26T10:17:15;6.13;;;3.50;;
830;SDS011;397;50.564;7.272;2023-06-26T10:19:41;4.90;;;3.50;;
830;SDS011;397;50.564;7.272;2023-06-26T10:22:17;12.83;;;3.90;;
830;SDS011;397;50.564;7.272;2023-06-26T10:24:47;6.77;;;3.50;;
830;SDS011;397;50.564;7.272;2023-06-26T10:27:17;4.90;;;3.80;;
830;SDS011;397;50.564;7.272;2023-06-26T10:29:50;7.10;;;2.90;;
830;SDS011;397;50.564;7.272;2023-06-26T10:32:22;4.53;;;3.57;;
830;SDS011;397;50.564;7.272;2023-06-26T10:34:52;6.00;;;3.17;;
830;SDS011;397;50.564;7.272;2023-06-26T10:37:26;5.33;;;3.70;;
830;SDS011;397;50.564;7.272;2023-06-26T10:39:55;7.50;;;3.07;;
830;SDS011;397;50.564;7.272;2023-06-26T10:42:35;6.67;;;3.93;;
830;SDS011;397;50.564;7.272;2023-06-26T10:45:13;9.07;;;3.90;;
830;SDS011;397;50.564;7.272;2023-06-26T10:47:42;4.33;;;3.20;;
830;SDS011;397;50.564;7.272;2023-06-26T10:53:10;6.13;;;3.07;;
830;SDS011;397;50.564;7.272;2023-06-26T10:55:51;4.77;;;3.07;;
830;SDS011;397;50.564;7.272;2023-06-26T11:03:46;5.70;;;3.10;;
830;SDS011;397;50.564;7.272;2023-06-26T11:06:24;6.40;;;2.93;;
830;SDS011;397;50.564;7.272;2023-06-26T11:08:53;7.90;;;3.50;;
830;SDS011;397;50.564;7.272;2023-06-26T11:11:22;5.50;;;2.70;;
830;SDS011;397;50.564;7.272;2023-06-26T11:14:09;6.80;;;2.90;;
830;SDS011;397;50.564;7.272;2023-06-26T11:16:39;7.33;;;3.27;;
830;SDS011;397;50.564;7.272;2023-06-26T11:19:12;4.77;;;2.63;;
830;SDS011;397;50.564;7.272;2023-06-26T11:21:41;5.50;;;2.83;;
830;SDS011;397;50.564;7.272;2023-06-26T11:24:09;6.90;;;3.60;;
830;SDS011;397;50.564;7.272;2023-06-26T11:26:38;9.43;;;2.90;;
830;SDS011;397;50.564;7.272;2023-06-26T11:29:06;4.83;;;3.10;;
830;SDS011;397;50.564;7.272;2023-06-26T11:31:41;7.70;;;2.83;;
830;SDS011;397;50.564;7.272;2023-06-26T11:34:05;9.40;;;3.30;;
830;SDS011;397;50.564;7.272;2023-06-26T11:36:36;5.07;;;2.40;;
830;SDS011;397;50.564;7.272;2023-06-26T11:39:05;5.93;;;3.07;;
830;SDS011;397;50.564;7.272;2023-06-26T11:41:34;7.97;;;2.67;;
830;SDS011;397;50.564;7.272;2023-06-26T11:44:04;6.37;;;2.80;;
830;SDS011;397;50.564;7.272;2023-06-26T11:46:35;5.70;;;3.07;;
830;SDS011;397;50.564;7.272;2023-06-26T11:49:04;5.50;;;2.40;;
830;SDS011;397;50.564;7.272;2023-06-26T11:51:33;6.00;;;2.90;;
830;SDS011;397;50.564;7.272;2023-06-26T11:54:02;4.90;;;2.47;;
830;SDS011;397;50.564;7.272;2023-06-26T11:56:30;5.30;;;2.63;;
830;SDS011;397;50.564;7.272;2023-06-26T11:59:02;5.60;;;2.40;;
830;SDS011;397;50.564;7.272;2023-06-26T12:04:08;7.17;;;2.53;;
830;SDS011;397;50.564;7.272;2023-06-26T12:06:42;6.90;;;2.50;;
830;SDS011;397;50.564;7.272;2023-06-26T12:09:07;4.70;;;2.37;;
830;SDS011;397;50.564;7.272;2023-06-26T12:11:37;6.10;;;2.50;;
830;SDS011;397;50.564;7.272;2023-06-26T12:14:07;6.77;;;2.43;;
830;SDS011;397;50.564;7.272;2023-06-26T12:16:35;5.00;;;2.60;;
830;SDS011;397;50.564;7.272;2023-06-26T12:19:07;6.00;;;2.20;;
830;SDS011;397;50.564;7.272;2023-06-26T12:24:16;5.57;;;2.57;;
830;SDS011;397;50.564;7.272;2023-06-26T12:26:45;5.10;;;2.47;;
830;SDS011;397;50.564;7.272;2023-06-26T12:29:15;4.20;;;2.23;;
830;SDS011;397;50.564;7.272;2023-06-26T12:31:50;8.13;;;3.23;;
830;SDS011;397;50.564;7.272;2023-06-26T12:34:20;4.23;;;2.30;;
830;SDS011;397;50.564;7.272;2023-06-26T12:36:50;5.40;;;2.30;;
830;SDS011;397;50.564;7.272;2023-06-26T12:39:18;3.50;;;2.17;;
830;SDS011;397;50.564;7.272;2023-06-26T12:41:53;4.60;;;2.70;;
830;SDS011;397;50.564;7.272;2023-06-26T12:46:56;5.50;;;2.40;;
830;SDS011;397;50.564;7.272;2023-06-26T12:49:36;5.00;;;2.33;;
830;SDS011;397;50.564;7.272;2023-06-26T12:52:06;5.63;;;2.60;;
830;SDS011;397;50.564;7.272;2023-06-26T12:54:35;5.37;;;2.70;;
830;SDS011;397;50.564;7.272;2023-06-26T12:57:04;5.33;;;2.17;;
830;SDS011;397;50.564;7.272;2023-06-26T12:59:33;4.50;;;2.30;;
830;SDS011;397;50.564;7.272;2023-06-26T13:02:01;5.00;;;2.40;;
830;SDS011;397;50.564;7.272;2023-06-26T13:04:29;5.67;;;2.50;;
830;SDS011;397;50.564;7.272;2023-06-26T13:06:57;7.70;;;2.40;;
830;SDS011;397;50.564;7.272;2023-06-26T13:09:25;7.47;;;2.30;;
830;SDS011;397;50.564;7.272;2023-06-26T13:11:53;6.73;;;2.37;;
830;SDS011;397;50.564;7.272;2023-06-26T13:14:21;11.97;;;3.47;;
830;SDS011;397;50.564;7.272;2023-06-26T13:16:48;5.93;;;2.50;;
830;SDS011;397;50.564;7.272;2023-06-26T13:19:16;6.10;;;2.17;;
830;SDS011;397;50.564;7.272;2023-06-26T13:21:43;5.53;;;2.43;;
830;SDS011;397;50.564;7.272;2023-06-26T13:24:11;5.60;;;2.63;;
830;SDS011;397;50.564;7.272;2023-06-26T13:26:39;4.37;;;2.27;;
830;SDS011;397;50.564;7.272;2023-06-26T13:29:06;5.57;;;2.77;;
830;SDS011;397;50.564;7.272;2023-06-26T13:31:34;5.10;;;2.30;;
830;SDS011;397;50.564;7.272;2023-06-26T13:34:02;4.60;;;2.50;;
830;SDS011;397;50.564;7.272;2023-06-26T13:36:31;4.70;;;3.10;;
830;SDS011;397;50.564;7.272;2023-06-26T13:39:03;4.90;;;2.70;;
830;SDS011;397;50.564;7.272;2023-06-26T13:41:30;5.27;;;2.60;;
830;SDS011;397;50.564;7.272;2023-06-26T13:43:58;6.60;;;2.40;;
830;SDS011;397;50.564;7.272;2023-06-26T13:46:25;4.57;;;2.40;;
830;SDS011;397;50.564;7.272;2023-06-26T13:48:53;6.53;;;2.43;;
830;SDS011;397;50.564;7.272;2023-06-26T13:51:21;4.53;;;2.93;;
830;SDS011;397;50.564;7.272;2023-06-26T13:53:48;4.40;;;1.87;;
830;SDS011;397;50.564;7.272;2023-06-26T13:56:16;9.23;;;2.20;;
830;SDS011;397;50.564;7.272;2023-06-26T13:58:43;8.53;;;2.57;;
830;SDS011;397;50.564;7.272;2023-06-26T14:01:11;5.83;;;2.50;;
830;SDS011;397;50.564;7.272;2023-06-26T14:03:39;4.53;;;2.50;;
830;SDS011;397;50.564;7.272;2023-06-26T14:06:07;9.10;;;2.47;;
830;SDS011;397;50.564;7.272;2023-06-26T14:08:34;5.30;;;2.20;;
830;SDS011;397;50.564;7.272;2023-06-26T14:11:02;5.97;;;2.67;;
830;SDS011;397;50.564;7.272;2023-06-26T14:13:29;7.07;;;2.80;;
830;SDS011;397;50.564;7.272;2023-06-26T14:15:57;6.67;;;2.77;;
830;SDS011;397;50.564;7.272;2023-06-26T14:18:24;5.10;;;2.33;;
830;SDS011;397;50.564;7.272;2023-06-26T14:20:53;7.80;;;2.17;;
830;SDS011;397;50.564;7.272;2023-06-26T14:23:21;5.27;;;2.40;;
830;SDS011;397;50.564;7.272;2023-06-26T14:25:48;5.27;;;2.67;;
830;SDS011;397;50.564;7.272;2023-06-26T14:28:16;7.50;;;2.97;;
830;SDS011;397;50.564;7.272;2023-06-26T14:30:43;5.90;;;2.60;;
830;SDS011;397;50.564;7.272;2023-06-26T14:33:11;4.10;;;2.30;;
830;SDS011;397;50.564;7.272;2023-06-26T14:35:38;6.00;;;2.80;;
830;SDS011;397;50.564;7.272;2023-06-26T14:38:06;8.13;;;2.30;;
830;SDS011;397;50.564;7.272;2023-06-26T14:40:33;3.00;;;1.77;;
830;SDS011;397;50.564;7.272;2023-06-26T14:43:01;5.23;;;2.70;;
830;SDS011;397;50.564;7.272;2023-06-26T14:45:28;3.90;;;1.97;;
830;SDS011;397;50.564;7.272;2023-06-26T14:47:55;6.17;;;2.37;;
830;SDS011;397;50.564;7.272;2023-06-26T14:50:23;4.43;;;2.20;;
830;SDS011;397;50.564;7.272;2023-06-26T14:52:50;3.80;;;2.20;;
830;SDS011;397;50.564;7.272;2023-06-26T14:55:27;11.53;;;3.17;;
830;SDS011;397;50.564;7.272;2023-06-26T14:57:54;4.67;;;1.93;;
830;SDS011;397;50.564;7.272;2023-06-26T15:00:22;4.93;;;2.53;;
830;SDS011;397;50.564;7.272;2023-06-26T15:02:50;4.93;;;2.53;;
830;SDS011;397;50.564;7.272;2023-06-26T15:05:19;4.10;;;2.47;;
830;SDS011;397;50.564;7.272;2023-06-26T15:07:50;7.40;;;2.50;;
830;SDS011;397;50.564;7.272;2023-06-26T15:10:18;5.97;;;2.50;;
830;SDS011;397;50.564;7.272;2023-06-26T15:12:47;5.20;;;2.40;;
830;SDS011;397;50.564;7.272;2023-06-26T15:15:14;3.67;;;2.10;;
830;SDS011;397;50.564;7.272;2023-06-26T15:17:43;4.93;;;2.07;;
830;SDS011;397;50.564;7.272;2023-06-26T15:20:10;4.27;;;2.30;;
830;SDS011;397;50.564;7.272;2023-06-26T15:22:38;5.80;;;2.20;;
830;SDS011;397;50.564;7.272;2023-06-26T15:25:06;4.67;;;1.73;;
830;SDS011;397;50.564;7.272;2023-06-26T15:27:34;5.77;;;2.60;;
830;SDS011;397;50.564;7.272;2023-06-26T15:30:02;3.20;;;1.57;;
830;SDS011;397;50.564;7.272;2023-06-26T15:32:31;7.17;;;2.20;;
830;SDS011;397;50.564;7.272;2023-06-26T15:34:59;3.57;;;2.00;;
830;SDS011;397;50.564;7.272;2023-06-26T15:37:26;6.53;;;2.20;;
830;SDS011;397;50.564;7.272;2023-06-26T15:39:54;4.60;;;2.50;;
830;SDS011;397;50.564;7.272;2023-06-26T15:42:25;6.27;;;2.20;;
830;SDS011;397;50.564;7.272;2023-06-26T15:44:56;6.57;;;2.07;;
830;SDS011;397;50.564;7.272;2023-06-26T15:47:24;4.63;;;2.20;;
830;SDS011;397;50.564;7.272;2023-06-26T15:49:52;6.50;;;2.70;;
830;SDS011;397;50.564;7.272;2023-06-26T15:52:19;7.63;;;1.83;;
830;SDS011;397;50.564;7.272;2023-06-26T15:54:47;5.67;;;2.10;;
830;SDS011;397;50.564;7.272;2023-06-26T15:57:14;6.03;;;2.00;;
830;SDS011;397;50.564;7.272;2023-06-26T15:59:42;8.20;;;2.47;;
830;SDS011;397;50.564;7.272;2023-06-26T16:02:09;9.00;;;2.60;;
830;SDS011;397;50.564;7.272;2023-06-26T16:04:37;5.40;;;2.30;;
830;SDS011;397;50.564;7.272;2023-06-26T16:07:04;4.13;;;2.20;;
830;SDS011;397;50.564;7.272;2023-06-26T16:09:32;3.33;;;2.20;;
830;SDS011;397;50.564;7.272;2023-06-26T16:11:59;6.60;;;2.00;;